Bangui, Central African Republic
Current Conditions -  °F | °C
As of 10:00 AM on Thursday 23 Oct 2014 (Local Time) from FEFF Reporting Station
Overcast Overcast  
Wind Chill: 75°   Ceiling: 13000
Heat Index: 75°   Visibility: 6mi
Dew Point: 72°   Wind: 2mph
Humidity: 89%   Direction: NA
Pressure: 30"   Gusts: NA
Location:  4.36°N, 18.56°E
Report Text: FEFF 230900Z VRB02KT 9999 SCT010 FEW033CB OVC130 24/22 Q1016 RERA NOSIG
Loading
Personal Weather Stations






























Interactive Weather Map
Tropical Storm Tracking
New forecast layout! Learn more

10-Day Weather Forecast

Advertisements
Track Severe Weather on mobile